createdAt,value
2022-07-26T04:02:50.094Z,11.40
2022-07-26T04:05:16.779Z,8.93
2022-07-26T04:07:53.028Z,10.23
2022-07-26T04:10:20.884Z,9.50
2022-07-26T04:12:47.402Z,15.10
2022-07-26T04:15:16.091Z,12.10
2022-07-26T04:17:43.267Z,8.13
2022-07-26T04:20:24.795Z,10.38
2022-07-26T04:22:51.277Z,8.05
2022-07-26T04:25:18.778Z,9.52
2022-07-26T04:27:45.271Z,9.55
2022-07-26T04:30:15.035Z,9.18
2022-07-26T04:32:42.935Z,13.65
2022-07-26T04:35:10.792Z,8.32
2022-07-26T04:37:42.652Z,11.07
2022-07-26T04:40:10.318Z,9.90
2022-07-26T04:42:38.329Z,10.20
2022-07-26T04:45:08.376Z,14.23
2022-07-26T04:47:35.491Z,12.80
2022-07-26T04:50:03.948Z,13.18
2022-07-26T04:52:30.463Z,11.63
2022-07-26T04:54:56.911Z,14.70
2022-07-26T04:57:23.539Z,10.80
2022-07-26T05:00:03.336Z,12.02
2022-07-26T05:02:36.752Z,11.27
2022-07-26T05:05:04.999Z,11.98
2022-07-26T05:07:47.084Z,14.27
2022-07-26T05:10:15.624Z,9.25
2022-07-26T05:12:42.361Z,12.98
2022-07-26T05:15:13.675Z,15.27
2022-07-26T05:17:42.774Z,12.68
2022-07-26T05:20:11.366Z,11.48
2022-07-26T05:22:38.228Z,10.05
2022-07-26T05:25:06.385Z,9.73
2022-07-26T05:27:33.289Z,15.13
2022-07-26T05:29:59.835Z,11.43
2022-07-26T05:32:28.037Z,10.55
2022-07-26T05:34:54.603Z,15.13
2022-07-26T05:37:21.109Z,10.13
2022-07-26T05:39:47.589Z,11.13
2022-07-26T05:42:14.027Z,10.80
2022-07-26T05:44:42.668Z,11.88
2022-07-26T05:47:09.813Z,10.80
2022-07-26T05:49:40.507Z,12.25
2022-07-26T05:52:08.295Z,12.60
2022-07-26T05:54:35.145Z,11.68
2022-07-26T05:57:02.058Z,10.15
2022-07-26T05:59:28.946Z,9.85
2022-07-26T06:01:58.337Z,11.50
2022-07-26T06:04:26.716Z,11.63
2022-07-26T06:06:54.630Z,9.60
2022-07-26T06:09:22.277Z,11.52
2022-07-26T06:11:48.768Z,12.32
2022-07-26T06:14:15.439Z,13.88
2022-07-26T06:16:42.081Z,9.75
2022-07-26T06:19:08.649Z,12.77
2022-07-26T06:21:35.171Z,12.32
2022-07-26T06:24:01.618Z,11.35
2022-07-26T06:26:28.277Z,11.27
2022-07-26T06:28:54.847Z,11.77
2022-07-26T06:31:21.699Z,12.27
2022-07-26T06:33:48.207Z,8.20
2022-07-26T06:36:14.744Z,15.70
2022-07-26T06:38:41.267Z,13.07
2022-07-26T06:41:07.842Z,10.27
2022-07-26T06:43:34.374Z,12.77
2022-07-26T06:46:01.094Z,10.43
2022-07-26T06:48:27.780Z,12.60
2022-07-26T06:50:55.471Z,14.70
2022-07-26T06:53:21.939Z,11.10
2022-07-26T06:55:48.411Z,11.27
2022-07-26T06:58:14.897Z,10.57
2022-07-26T07:00:41.527Z,11.68
2022-07-26T07:03:08.212Z,7.63
2022-07-26T07:05:34.675Z,11.18
2022-07-26T07:08:01.162Z,11.50
2022-07-26T07:10:29.061Z,12.90
2022-07-26T07:12:56.056Z,6.65
2022-07-26T07:15:22.512Z,8.35
2022-07-26T07:17:49.009Z,6.45
2022-07-26T07:20:15.472Z,6.20
2022-07-26T07:22:41.940Z,5.85
2022-07-26T07:25:08.689Z,7.70
2022-07-26T07:27:35.159Z,5.82
2022-07-26T07:30:02.269Z,9.07
2022-07-26T07:32:30.861Z,9.60
2022-07-26T07:34:57.528Z,5.15
2022-07-26T07:37:24.080Z,5.72
2022-07-26T07:39:51.241Z,8.77
2022-07-26T07:42:19.200Z,7.30
2022-07-26T07:44:46.550Z,5.90
2022-07-26T07:47:14.074Z,5.00
2022-07-26T07:49:40.660Z,5.95
2022-07-26T07:52:07.134Z,8.30
2022-07-26T07:54:33.623Z,8.18
2022-07-26T07:57:00.091Z,7.72
2022-07-26T07:59:27.275Z,6.60
2022-07-26T08:01:55.462Z,6.70
2022-07-26T08:04:21.937Z,8.63
2022-07-26T08:06:51.407Z,7.28
2022-07-26T08:09:19.023Z,7.03
2022-07-26T08:11:45.702Z,5.63
2022-07-26T08:14:18.013Z,7.22
2022-07-26T08:16:44.763Z,5.47
2022-07-26T08:19:11.924Z,5.25
2022-07-26T08:21:38.995Z,8.68
2022-07-26T08:24:06.581Z,6.00
2022-07-26T08:26:33.108Z,6.50
2022-07-26T08:29:00.529Z,5.25
2022-07-26T08:31:30.493Z,4.82
2022-07-26T08:33:57.191Z,4.80
2022-07-26T08:36:28.220Z,4.28
2022-07-26T08:38:58.328Z,4.22
2022-07-26T08:41:24.819Z,4.13
2022-07-26T08:43:53.643Z,3.75
2022-07-26T08:46:26.477Z,7.22
2022-07-26T08:48:55.090Z,3.87
2022-07-26T08:51:24.081Z,2.78
2022-07-26T08:54:00.545Z,3.97
2022-07-26T08:56:30.437Z,3.55
2022-07-26T08:58:57.185Z,3.15
2022-07-26T09:01:23.853Z,2.58
2022-07-26T09:03:50.411Z,2.55
2022-07-26T09:06:20.085Z,3.38
2022-07-26T09:08:49.597Z,5.22
2022-07-26T09:11:30.447Z,3.15
2022-07-26T09:14:02.605Z,2.95
2022-07-26T09:16:30.211Z,7.82
2022-07-26T09:19:17.675Z,2.35
2022-07-26T09:21:44.903Z,2.80
2022-07-26T09:24:11.471Z,4.97
2022-07-26T09:26:38.650Z,3.20
2022-07-26T09:29:10.834Z,4.20
2022-07-26T09:31:39.512Z,4.28
2022-07-26T09:34:07.110Z,4.63
2022-07-26T09:36:49.556Z,5.05
2022-07-26T09:39:16.098Z,2.90
2022-07-26T09:41:42.700Z,4.95
2022-07-26T09:44:26.366Z,4.43
2022-07-26T09:46:53.925Z,4.80
2022-07-26T09:49:21.783Z,3.60
2022-07-26T09:51:53.662Z,2.90
2022-07-26T09:54:31.847Z,5.13
2022-07-26T09:56:58.657Z,3.20
2022-07-26T09:59:26.795Z,5.03
2022-07-26T10:01:56.304Z,6.28
2022-07-26T10:04:24.385Z,3.53
2022-07-26T10:06:52.021Z,11.65
2022-07-26T10:09:19.931Z,3.67
2022-07-26T10:11:54.793Z,5.90
2022-07-26T10:14:33.436Z,2.20
2022-07-26T10:17:01.587Z,2.90
2022-07-26T10:19:41.794Z,2.70
2022-07-26T10:22:26.021Z,3.05
2022-07-26T10:24:58.301Z,5.53
2022-07-26T10:27:38.913Z,4.93
2022-07-26T10:30:33.916Z,4.63
2022-07-26T10:33:02.601Z,4.95
2022-07-26T10:35:32.689Z,7.35
2022-07-26T10:38:01.564Z,3.38
2022-07-26T10:40:30.173Z,4.13
2022-07-26T10:43:39.093Z,3.97
2022-07-26T10:46:16.879Z,2.72
2022-07-26T10:49:04.174Z,3.80
2022-07-26T10:51:36.716Z,3.05
2022-07-26T10:54:09.691Z,2.78
2022-07-26T10:56:37.031Z,4.17
2022-07-26T10:59:05.505Z,4.13
2022-07-26T11:01:33.600Z,3.80
2022-07-26T11:04:00.681Z,2.78
2022-07-26T11:06:31.972Z,2.72
2022-07-26T11:08:58.767Z,2.95
2022-07-26T11:11:30.543Z,3.38
2022-07-26T11:14:09.094Z,4.47
2022-07-26T11:16:43.207Z,6.03
2022-07-26T11:19:29.207Z,4.45
2022-07-26T11:22:00.434Z,4.60
2022-07-26T11:24:28.439Z,2.95
2022-07-26T11:26:55.704Z,5.75
2022-07-26T11:29:38.938Z,4.78
2022-07-26T11:32:17.678Z,5.28
2022-07-26T11:34:45.425Z,2.35
2022-07-26T11:37:12.262Z,5.38
2022-07-26T11:39:38.874Z,5.18
2022-07-26T11:42:15.010Z,5.05
2022-07-26T11:44:45.984Z,2.50
2022-07-26T11:47:14.479Z,6.07
2022-07-26T11:49:52.482Z,4.65
2022-07-26T11:52:32.146Z,4.40
2022-07-26T11:54:59.221Z,3.50
2022-07-26T11:57:30.548Z,5.32
2022-07-26T11:59:58.617Z,5.95
2022-07-26T12:02:26.275Z,4.13
2022-07-26T12:05:14.364Z,4.88
2022-07-26T12:07:56.360Z,2.20
2022-07-26T12:10:23.038Z,6.88
2022-07-26T12:12:49.783Z,8.32
2022-07-26T12:15:16.418Z,6.40
2022-07-26T12:18:00.299Z,4.50
2022-07-26T12:20:28.172Z,3.85
2022-07-26T12:22:57.610Z,7.53
2022-07-26T12:25:29.014Z,6.18
2022-07-26T12:27:55.590Z,6.85
2022-07-26T12:30:22.422Z,7.95
2022-07-26T12:32:51.892Z,6.03
2022-07-26T12:35:29.447Z,5.30
2022-07-26T12:37:56.944Z,6.40
2022-07-26T12:40:25.700Z,9.30
2022-07-26T12:42:55.837Z,6.57
2022-07-26T12:45:29.540Z,3.60
2022-07-26T12:47:57.990Z,6.15
2022-07-26T12:50:27.914Z,7.32
2022-07-26T12:53:03.039Z,5.35
2022-07-26T12:55:29.773Z,7.97
2022-07-26T12:57:57.175Z,6.28
2022-07-26T13:00:23.984Z,9.73
2022-07-26T13:02:51.231Z,6.97
2022-07-26T13:05:17.789Z,6.88
2022-07-26T13:07:44.357Z,6.35
2022-07-26T13:12:57.610Z,5.63
2022-07-26T13:15:24.185Z,8.32
2022-07-26T13:18:03.201Z,5.25
2022-07-26T13:20:30.572Z,7.82
2022-07-26T13:22:57.118Z,9.25
2022-07-26T13:25:25.396Z,7.13
2022-07-26T13:27:55.476Z,9.13
2022-07-26T13:30:22.304Z,9.88
2022-07-26T13:32:48.965Z,6.80
2022-07-26T13:35:15.457Z,8.63
2022-07-26T13:37:41.919Z,13.52
2022-07-26T13:40:09.007Z,10.65
2022-07-26T13:42:37.986Z,11.00
2022-07-26T13:45:06.301Z,9.95
2022-07-26T13:47:32.763Z,10.57
2022-07-26T13:49:59.374Z,13.88
2022-07-26T13:52:25.883Z,11.60
2022-07-26T13:54:53.099Z,9.35
2022-07-26T13:57:19.561Z,12.82
2022-07-26T13:59:46.094Z,10.15
2022-07-26T14:02:12.724Z,8.15
2022-07-26T14:04:39.333Z,8.93
2022-07-26T14:07:05.790Z,8.95
2022-07-26T14:09:32.690Z,10.20
2022-07-26T14:11:59.267Z,7.93
2022-07-26T14:14:25.730Z,8.43
2022-07-26T14:16:52.266Z,10.90
2022-07-26T14:19:18.868Z,7.10
2022-07-26T14:21:47.260Z,12.27
2022-07-26T14:24:26.531Z,9.85
2022-07-26T14:26:56.857Z,10.93
2022-07-26T14:29:26.335Z,10.38
2022-07-26T14:31:53.188Z,11.73
2022-07-26T14:34:19.805Z,9.63
2022-07-26T14:36:46.366Z,12.00
2022-07-26T14:39:12.813Z,10.52
2022-07-26T14:41:39.534Z,7.03
2022-07-26T14:44:06.784Z,10.98
2022-07-26T14:46:33.474Z,9.32
2022-07-26T14:49:01.377Z,8.30
2022-07-26T14:51:28.051Z,9.82
2022-07-26T14:53:54.680Z,7.47
2022-07-26T14:56:21.678Z,12.80
2022-07-26T14:58:48.131Z,14.32
2022-07-26T15:01:14.710Z,5.78
2022-07-26T15:03:41.231Z,6.53
2022-07-26T15:06:07.740Z,7.45
2022-07-26T15:08:34.382Z,7.10
2022-07-26T15:11:00.899Z,7.40
2022-07-26T15:13:27.477Z,6.40
2022-07-26T15:15:54.013Z,7.85
2022-07-26T15:18:20.515Z,7.88
2022-07-26T15:20:47.232Z,10.10
2022-07-26T15:23:16.465Z,8.25
2022-07-26T15:25:43.100Z,7.25
2022-07-26T15:28:09.620Z,11.23
2022-07-26T15:30:37.244Z,7.93
2022-07-26T15:33:03.768Z,8.23
2022-07-26T15:35:30.291Z,9.23
2022-07-26T15:37:57.628Z,12.20
2022-07-26T15:40:24.625Z,14.52
2022-07-26T15:42:53.038Z,11.63
2022-07-26T15:45:22.584Z,6.53
2022-07-26T15:47:56.235Z,6.15
2022-07-26T15:50:26.130Z,7.57
2022-07-26T15:52:52.905Z,8.85
2022-07-26T15:55:20.663Z,9.23
2022-07-26T15:57:47.518Z,9.90
2022-07-26T16:00:15.238Z,14.85
2022-07-26T16:02:42.128Z,23.05
2022-07-26T16:05:10.286Z,11.20
2022-07-26T16:07:37.713Z,8.35
2022-07-26T16:10:04.993Z,11.07
2022-07-26T16:12:31.462Z,7.20
2022-07-26T16:14:57.906Z,9.73
2022-07-26T16:17:25.215Z,11.90
2022-07-26T16:19:52.893Z,9.18
2022-07-26T16:22:19.453Z,8.73
2022-07-26T16:24:46.093Z,7.47
2022-07-26T16:27:12.599Z,11.85
2022-07-26T16:29:39.230Z,7.97
2022-07-26T16:32:08.219Z,7.95
2022-07-26T16:34:34.935Z,5.28
2022-07-26T16:37:02.146Z,7.82
2022-07-26T16:39:28.895Z,7.75
2022-07-26T16:41:55.351Z,8.80
2022-07-26T16:44:23.992Z,10.68
2022-07-26T16:46:51.606Z,7.53
2022-07-26T16:49:18.209Z,6.35
2022-07-26T16:51:44.775Z,10.35
2022-07-26T16:54:11.378Z,14.80
2022-07-26T16:56:38.082Z,14.02
2022-07-26T16:59:08.645Z,11.18
2022-07-26T17:01:36.843Z,11.00
2022-07-26T17:04:03.422Z,8.57
2022-07-26T17:06:29.859Z,12.00
2022-07-26T17:08:56.354Z,8.10
2022-07-26T17:11:22.906Z,10.05
2022-07-26T17:13:49.607Z,7.57
2022-07-26T17:16:16.164Z,7.10
2022-07-26T17:18:50.751Z,11.48
2022-07-26T17:21:17.358Z,8.95
2022-07-26T17:23:44.053Z,9.50
2022-07-26T17:26:10.578Z,8.60
2022-07-26T17:28:37.114Z,13.10
2022-07-26T17:31:03.640Z,9.07
2022-07-26T17:33:30.270Z,8.68
2022-07-26T17:35:56.791Z,8.98
2022-07-26T17:38:28.787Z,11.32
2022-07-26T17:40:57.026Z,9.07
2022-07-26T17:43:23.562Z,10.25
2022-07-26T17:45:50.410Z,7.57
2022-07-26T17:48:16.896Z,11.52
2022-07-26T17:50:43.362Z,9.18
2022-07-26T17:53:09.882Z,6.90
2022-07-26T17:55:36.317Z,8.55
2022-07-26T17:58:02.851Z,9.45
2022-07-26T18:00:29.665Z,7.05
2022-07-26T18:02:57.206Z,8.27
2022-07-26T18:05:30.160Z,9.25
2022-07-26T18:07:59.991Z,8.23
2022-07-26T18:10:27.605Z,9.25
2022-07-26T18:12:54.777Z,7.15
2022-07-26T18:15:21.909Z,9.93
2022-07-26T18:17:48.552Z,15.23
2022-07-26T18:20:15.169Z,10.68
2022-07-26T18:22:41.646Z,8.50
2022-07-26T18:25:12.685Z,6.38
2022-07-26T18:27:39.665Z,6.45
2022-07-26T18:30:07.179Z,8.88
2022-07-26T18:32:34.814Z,7.35
2022-07-26T18:35:01.408Z,7.85
2022-07-26T18:37:27.963Z,6.90
2022-07-26T18:39:57.844Z,7.97
2022-07-26T18:42:25.020Z,8.02
2022-07-26T18:44:51.705Z,6.05
2022-07-26T18:47:18.210Z,7.20
2022-07-26T18:49:44.655Z,6.45
2022-07-26T18:52:11.504Z,7.18
2022-07-26T18:54:37.939Z,7.07
2022-07-26T18:57:04.790Z,6.25
2022-07-26T18:59:31.671Z,6.43
2022-07-26T19:01:59.789Z,10.05
2022-07-26T19:04:26.817Z,5.72
2022-07-26T19:06:53.423Z,6.20
2022-07-26T19:09:20.090Z,7.82
2022-07-26T19:11:46.698Z,5.95
2022-07-26T19:14:13.355Z,6.05
2022-07-26T19:16:39.981Z,6.88
2022-07-26T19:19:06.438Z,10.20
2022-07-26T19:21:32.962Z,6.40
2022-07-26T19:23:59.467Z,4.97
2022-07-26T19:26:27.324Z,5.28
2022-07-26T19:28:54.025Z,6.90
2022-07-26T19:31:21.743Z,7.07
2022-07-26T19:33:48.319Z,5.80
2022-07-26T19:36:17.365Z,6.38
2022-07-26T19:38:52.261Z,5.47
2022-07-26T19:41:19.902Z,8.95
2022-07-26T19:43:46.418Z,7.35
2022-07-26T19:46:13.150Z,7.70
2022-07-26T19:48:39.920Z,5.90
2022-07-26T19:51:06.468Z,7.80
2022-07-26T19:53:32.952Z,7.63
2022-07-26T19:55:59.414Z,8.40
2022-07-26T19:58:26.222Z,6.43
2022-07-26T20:00:53.581Z,8.23
2022-07-26T20:03:20.039Z,5.28
2022-07-26T20:05:46.576Z,5.63
2022-07-26T20:08:13.042Z,6.70
2022-07-26T20:10:39.698Z,6.25
2022-07-26T20:13:06.278Z,6.82
2022-07-26T20:15:33.077Z,5.75
2022-07-26T20:17:59.641Z,6.63
2022-07-26T20:20:26.206Z,5.80
2022-07-26T20:22:52.711Z,8.05
2022-07-26T20:25:21.576Z,5.60
2022-07-26T20:27:51.222Z,4.28
2022-07-26T20:30:18.266Z,7.47
2022-07-26T20:32:44.806Z,5.22
2022-07-26T20:35:12.114Z,4.68
2022-07-26T20:37:38.745Z,5.35
2022-07-26T20:40:08.358Z,4.72
2022-07-26T20:42:36.575Z,4.85
2022-07-26T20:45:11.430Z,5.30
2022-07-26T20:47:43.052Z,6.95
2022-07-26T20:50:14.152Z,7.90
2022-07-26T20:52:40.625Z,7.75
2022-07-26T20:55:07.987Z,6.20
2022-07-26T20:57:34.722Z,8.15
2022-07-26T21:00:01.255Z,5.80
2022-07-26T21:02:27.938Z,7.32
2022-07-26T21:04:54.587Z,7.28
2022-07-26T21:07:21.037Z,6.10
2022-07-26T21:09:47.712Z,7.88
2022-07-26T21:12:14.243Z,8.15
2022-07-26T21:14:40.752Z,5.80
2022-07-26T21:17:11.594Z,7.68
2022-07-26T21:19:39.320Z,3.75
2022-07-26T21:22:05.981Z,3.80
2022-07-26T21:24:32.780Z,4.15
2022-07-26T21:26:59.242Z,4.95
2022-07-26T21:29:25.819Z,7.95
2022-07-26T21:31:52.340Z,3.38
2022-07-26T21:34:19.221Z,5.07
2022-07-26T21:36:46.218Z,3.80
2022-07-26T21:39:13.711Z,10.07
2022-07-26T21:41:40.477Z,3.55
2022-07-26T21:44:06.963Z,5.00
2022-07-26T21:46:33.511Z,6.35
2022-07-26T21:49:00.108Z,6.80
2022-07-26T21:51:26.778Z,4.38
2022-07-26T21:53:53.304Z,7.43
2022-07-26T21:56:19.769Z,6.78
2022-07-26T21:58:46.856Z,5.75
